sensor_id;sensor_type;location;lat;lon;timestamp;temperature;humidity
4433;DHT22;2229;48.708;9.706;2022-12-29T00:00:21;8.90;99.90
4433;DHT22;2229;48.708;9.706;2022-12-29T00:02:48;8.90;99.90
4433;DHT22;2229;48.708;9.706;2022-12-29T00:05:16;9.00;99.90
4433;DHT22;2229;48.708;9.706;2022-12-29T00:07:45;9.20;99.90
4433;DHT22;2229;48.708;9.706;2022-12-29T00:10:12;9.50;99.90
4433;DHT22;2229;48.708;9.706;2022-12-29T00:12:39;9.50;99.90
4433;DHT22;2229;48.708;9.706;2022-12-29T00:15:24;9.60;99.90
4433;DHT22;2229;48.708;9.706;2022-12-29T00:18:04;9.70;99.90
4433;DHT22;2229;48.708;9.706;2022-12-29T00:20:33;9.80;99.90
4433;DHT22;2229;48.708;9.706;2022-12-29T00:23:20;10.00;99.90
4433;DHT22;2229;48.708;9.706;2022-12-29T00:26:11;10.00;99.90
4433;DHT22;2229;48.708;9.706;2022-12-29T00:28:57;10.10;99.90
4433;DHT22;2229;48.708;9.706;2022-12-29T00:31:42;10.20;99.90
4433;DHT22;2229;48.708;9.706;2022-12-29T00:34:26;10.30;99.80
4433;DHT22;2229;48.708;9.706;2022-12-29T00:37:11;10.10;99.50
4433;DHT22;2229;48.708;9.706;2022-12-29T00:39:40;10.10;99.90
4433;DHT22;2229;48.708;9.706;2022-12-29T00:42:24;10.20;99.70
4433;DHT22;2229;48.708;9.706;2022-12-29T00:45:09;10.40;99.50
4433;DHT22;2229;48.708;9.706;2022-12-29T00:47:36;10.40;99.80
4433;DHT22;2229;48.708;9.706;2022-12-29T00:50:04;10.60;99.80
4433;DHT22;2229;48.708;9.706;2022-12-29T00:52:30;10.50;99.40
4433;DHT22;2229;48.708;9.706;2022-12-29T00:54:58;10.40;99.20
4433;DHT22;2229;48.708;9.706;2022-12-29T00:57:26;10.60;99.30
4433;DHT22;2229;48.708;9.706;2022-12-29T00:59:53;10.60;99.10
4433;DHT22;2229;48.708;9.706;2022-12-29T01:02:20;10.70;99.10
4433;DHT22;2229;48.708;9.706;2022-12-29T01:04:47;10.60;98.90
4433;DHT22;2229;48.708;9.706;2022-12-29T01:07:16;10.70;98.90
4433;DHT22;2229;48.708;9.706;2022-12-29T01:09:44;10.70;99.10
4433;DHT22;2229;48.708;9.706;2022-12-29T01:12:41;10.70;98.40
4433;DHT22;2229;48.708;9.706;2022-12-29T01:15:12;11.00;98.70
4433;DHT22;2229;48.708;9.706;2022-12-29T01:17:41;11.20;98.90
4433;DHT22;2229;48.708;9.706;2022-12-29T01:20:09;10.80;98.40
4433;DHT22;2229;48.708;9.706;2022-12-29T01:22:37;10.70;98.30
4433;DHT22;2229;48.708;9.706;2022-12-29T01:25:05;11.00;98.00
4433;DHT22;2229;48.708;9.706;2022-12-29T01:27:33;10.90;97.80
4433;DHT22;2229;48.708;9.706;2022-12-29T01:30:01;11.00;97.70
4433;DHT22;2229;48.708;9.706;2022-12-29T01:32:33;10.80;97.70
4433;DHT22;2229;48.708;9.706;2022-12-29T01:35:01;11.10;97.50
4433;DHT22;2229;48.708;9.706;2022-12-29T01:37:28;10.80;97.00
4433;DHT22;2229;48.708;9.706;2022-12-29T01:39:56;10.90;97.00
4433;DHT22;2229;48.708;9.706;2022-12-29T01:42:24;10.90;97.10
4433;DHT22;2229;48.708;9.706;2022-12-29T01:44:54;10.90;97.10
4433;DHT22;2229;48.708;9.706;2022-12-29T01:47:41;10.90;97.20
4433;DHT22;2229;48.708;9.706;2022-12-29T01:50:13;10.80;97.30
4433;DHT22;2229;48.708;9.706;2022-12-29T01:52:44;10.80;97.10
4433;DHT22;2229;48.708;9.706;2022-12-29T01:55:14;11.00;97.00
4433;DHT22;2229;48.708;9.706;2022-12-29T01:57:49;10.70;96.80
4433;DHT22;2229;48.708;9.706;2022-12-29T02:00:17;10.90;96.80
4433;DHT22;2229;48.708;9.706;2022-12-29T02:02:50;10.80;96.60
4433;DHT22;2229;48.708;9.706;2022-12-29T02:05:24;10.90;96.80
4433;DHT22;2229;48.708;9.706;2022-12-29T02:07:53;10.90;96.70
4433;DHT22;2229;48.708;9.706;2022-12-29T02:10:21;10.80;96.70
4433;DHT22;2229;48.708;9.706;2022-12-29T02:12:49;10.80;96.70
4433;DHT22;2229;48.708;9.706;2022-12-29T02:15:17;11.00;96.80
4433;DHT22;2229;48.708;9.706;2022-12-29T02:17:59;10.70;96.70
4433;DHT22;2229;48.708;9.706;2022-12-29T02:24:06;10.90;96.20
4433;DHT22;2229;48.708;9.706;2022-12-29T02:26:56;10.70;96.10
4433;DHT22;2229;48.708;9.706;2022-12-29T02:29:44;10.80;95.90
4433;DHT22;2229;48.708;9.706;2022-12-29T02:32:25;10.80;96.70
4433;DHT22;2229;48.708;9.706;2022-12-29T02:35:03;10.80;96.60
4433;DHT22;2229;48.708;9.706;2022-12-29T02:37:40;10.90;96.40
4433;DHT22;2229;48.708;9.706;2022-12-29T02:40:17;10.80;96.60
4433;DHT22;2229;48.708;9.706;2022-12-29T02:42:50;10.70;96.70
4433;DHT22;2229;48.708;9.706;2022-12-29T02:45:21;10.70;96.50
4433;DHT22;2229;48.708;9.706;2022-12-29T02:47:56;10.90;96.60
4433;DHT22;2229;48.708;9.706;2022-12-29T02:50:31;10.70;96.30
4433;DHT22;2229;48.708;9.706;2022-12-29T02:53:04;10.70;96.20
4433;DHT22;2229;48.708;9.706;2022-12-29T02:55:34;10.90;96.20
4433;DHT22;2229;48.708;9.706;2022-12-29T02:58:17;10.70;96.10
4433;DHT22;2229;48.708;9.706;2022-12-29T03:00:58;11.20;95.70
4433;DHT22;2229;48.708;9.706;2022-12-29T03:06:33;10.80;96.10
4433;DHT22;2229;48.708;9.706;2022-12-29T03:09:11;10.90;96.10
4433;DHT22;2229;48.708;9.706;2022-12-29T03:11:53;10.80;96.00
4433;DHT22;2229;48.708;9.706;2022-12-29T03:14:44;10.80;96.00
4433;DHT22;2229;48.708;9.706;2022-12-29T03:17:36;10.80;96.00
4433;DHT22;2229;48.708;9.706;2022-12-29T03:20:09;10.90;96.00
4433;DHT22;2229;48.708;9.706;2022-12-29T03:22:43;11.00;96.10
4433;DHT22;2229;48.708;9.706;2022-12-29T03:25:18;10.70;95.90
4433;DHT22;2229;48.708;9.706;2022-12-29T03:27:51;10.70;95.90
4433;DHT22;2229;48.708;9.706;2022-12-29T03:30:21;10.70;96.00
4433;DHT22;2229;48.708;9.706;2022-12-29T03:32:51;10.60;96.10
4433;DHT22;2229;48.708;9.706;2022-12-29T03:35:25;10.30;96.20
4433;DHT22;2229;48.708;9.706;2022-12-29T03:37:59;10.50;96.50
4433;DHT22;2229;48.708;9.706;2022-12-29T03:40:28;10.10;96.60
4433;DHT22;2229;48.708;9.706;2022-12-29T03:42:58;10.00;96.70
4433;DHT22;2229;48.708;9.706;2022-12-29T03:45:27;10.00;96.80
4433;DHT22;2229;48.708;9.706;2022-12-29T03:47:54;9.90;97.40
4433;DHT22;2229;48.708;9.706;2022-12-29T03:50:23;9.80;97.40
4433;DHT22;2229;48.708;9.706;2022-12-29T03:52:50;9.80;97.70
4433;DHT22;2229;48.708;9.706;2022-12-29T03:55:18;9.70;97.70
4433;DHT22;2229;48.708;9.706;2022-12-29T03:57:46;9.70;97.80
4433;DHT22;2229;48.708;9.706;2022-12-29T04:00:19;9.60;97.70
4433;DHT22;2229;48.708;9.706;2022-12-29T04:02:49;9.60;97.80
4433;DHT22;2229;48.708;9.706;2022-12-29T04:05:24;9.60;97.90
4433;DHT22;2229;48.708;9.706;2022-12-29T04:07:54;9.50;97.80
4433;DHT22;2229;48.708;9.706;2022-12-29T04:10:21;9.50;97.90
4433;DHT22;2229;48.708;9.706;2022-12-29T04:12:51;9.50;98.00
4433;DHT22;2229;48.708;9.706;2022-12-29T04:15:18;9.40;98.30
4433;DHT22;2229;48.708;9.706;2022-12-29T04:17:45;9.50;98.20
4433;DHT22;2229;48.708;9.706;2022-12-29T04:20:12;9.30;98.10
4433;DHT22;2229;48.708;9.706;2022-12-29T04:23:01;9.30;98.00
4433;DHT22;2229;48.708;9.706;2022-12-29T04:25:31;9.30;98.40
4433;DHT22;2229;48.708;9.706;2022-12-29T04:27:59;9.20;98.40
4433;DHT22;2229;48.708;9.706;2022-12-29T04:30:49;9.30;98.50
4433;DHT22;2229;48.708;9.706;2022-12-29T04:33:25;9.40;98.70
4433;DHT22;2229;48.708;9.706;2022-12-29T04:35:53;9.00;98.70
4433;DHT22;2229;48.708;9.706;2022-12-29T04:38:24;9.00;98.60
4433;DHT22;2229;48.708;9.706;2022-12-29T04:40:52;8.80;98.60
4433;DHT22;2229;48.708;9.706;2022-12-29T04:43:22;8.90;98.70
4433;DHT22;2229;48.708;9.706;2022-12-29T04:46:12;8.70;98.60
4433;DHT22;2229;48.708;9.706;2022-12-29T04:48:46;8.80;98.80
4433;DHT22;2229;48.708;9.706;2022-12-29T04:51:39;8.90;98.90
4433;DHT22;2229;48.708;9.706;2022-12-29T04:54:10;8.70;99.00
4433;DHT22;2229;48.708;9.706;2022-12-29T04:56:38;8.70;99.30
4433;DHT22;2229;48.708;9.706;2022-12-29T04:59:05;8.70;99.20
4433;DHT22;2229;48.708;9.706;2022-12-29T05:01:32;8.60;99.40
4433;DHT22;2229;48.708;9.706;2022-12-29T05:03:59;8.60;99.50
4433;DHT22;2229;48.708;9.706;2022-12-29T05:06:27;8.40;99.50
4433;DHT22;2229;48.708;9.706;2022-12-29T05:08:55;8.50;99.40
4433;DHT22;2229;48.708;9.706;2022-12-29T05:11:26;8.30;98.90
4433;DHT22;2229;48.708;9.706;2022-12-29T05:13:54;8.40;99.10
4433;DHT22;2229;48.708;9.706;2022-12-29T05:16:21;8.40;99.10
4433;DHT22;2229;48.708;9.706;2022-12-29T05:18:49;8.50;98.90
4433;DHT22;2229;48.708;9.706;2022-12-29T05:21:16;8.60;99.10
4433;DHT22;2229;48.708;9.706;2022-12-29T05:23:45;8.70;99.10
4433;DHT22;2229;48.708;9.706;2022-12-29T05:26:14;8.30;98.80
4433;DHT22;2229;48.708;9.706;2022-12-29T05:29:02;8.30;99.00
4433;DHT22;2229;48.708;9.706;2022-12-29T05:31:29;8.30;99.10
4433;DHT22;2229;48.708;9.706;2022-12-29T05:33:57;8.20;99.00
4433;DHT22;2229;48.708;9.706;2022-12-29T05:36:25;8.30;99.20
4433;DHT22;2229;48.708;9.706;2022-12-29T05:38:56;8.20;99.20
4433;DHT22;2229;48.708;9.706;2022-12-29T05:41:23;8.30;99.20
4433;DHT22;2229;48.708;9.706;2022-12-29T05:44:12;8.20;99.20
4433;DHT22;2229;48.708;9.706;2022-12-29T05:46:49;8.30;99.40
4433;DHT22;2229;48.708;9.706;2022-12-29T05:49:20;8.20;99.40
4433;DHT22;2229;48.708;9.706;2022-12-29T05:51:54;8.20;99.40
4433;DHT22;2229;48.708;9.706;2022-12-29T05:54:22;8.20;99.60
4433;DHT22;2229;48.708;9.706;2022-12-29T05:56:51;8.20;99.50
4433;DHT22;2229;48.708;9.706;2022-12-29T05:59:20;8.20;99.60
4433;DHT22;2229;48.708;9.706;2022-12-29T06:01:47;8.20;99.60
4433;DHT22;2229;48.708;9.706;2022-12-29T06:04:15;8.00;99.60
4433;DHT22;2229;48.708;9.706;2022-12-29T06:06:43;8.10;99.70
4433;DHT22;2229;48.708;9.706;2022-12-29T06:09:18;8.20;99.60
4433;DHT22;2229;48.708;9.706;2022-12-29T06:11:45;7.60;99.40
4433;DHT22;2229;48.708;9.706;2022-12-29T06:14:13;8.10;99.60
4433;DHT22;2229;48.708;9.706;2022-12-29T06:16:43;8.20;99.90
4433;DHT22;2229;48.708;9.706;2022-12-29T06:19:12;8.10;99.80
4433;DHT22;2229;48.708;9.706;2022-12-29T06:21:40;8.40;99.80
4433;DHT22;2229;48.708;9.706;2022-12-29T06:24:09;8.20;99.90
4433;DHT22;2229;48.708;9.706;2022-12-29T06:26:37;8.10;99.90
4433;DHT22;2229;48.708;9.706;2022-12-29T06:29:04;8.00;99.90
4433;DHT22;2229;48.708;9.706;2022-12-29T06:31:32;8.00;99.90
4433;DHT22;2229;48.708;9.706;2022-12-29T06:34:01;8.30;99.90
4433;DHT22;2229;48.708;9.706;2022-12-29T06:36:30;7.90;99.90
4433;DHT22;2229;48.708;9.706;2022-12-29T06:38:57;7.90;99.90
4433;DHT22;2229;48.708;9.706;2022-12-29T06:41:25;7.60;99.90
4433;DHT22;2229;48.708;9.706;2022-12-29T06:44:14;8.10;99.90
4433;DHT22;2229;48.708;9.706;2022-12-29T06:47:00;8.00;99.90
4433;DHT22;2229;48.708;9.706;2022-12-29T06:49:29;8.20;99.90
4433;DHT22;2229;48.708;9.706;2022-12-29T06:51:56;8.20;99.90
4433;DHT22;2229;48.708;9.706;2022-12-29T06:54:24;8.40;99.90
4433;DHT22;2229;48.708;9.706;2022-12-29T06:56:51;8.40;99.90
4433;DHT22;2229;48.708;9.706;2022-12-29T06:59:19;8.70;99.90
4433;DHT22;2229;48.708;9.706;2022-12-29T07:01:46;8.80;99.90
4433;DHT22;2229;48.708;9.706;2022-12-29T07:04:13;8.70;99.90
4433;DHT22;2229;48.708;9.706;2022-12-29T07:06:42;8.80;99.90
4433;DHT22;2229;48.708;9.706;2022-12-29T07:09:11;8.80;99.90
4433;DHT22;2229;48.708;9.706;2022-12-29T07:11:38;8.80;99.90
4433;DHT22;2229;48.708;9.706;2022-12-29T07:14:05;8.80;99.90
4433;DHT22;2229;48.708;9.706;2022-12-29T07:16:33;8.70;99.90
4433;DHT22;2229;48.708;9.706;2022-12-29T07:19:00;8.70;99.70
4433;DHT22;2229;48.708;9.706;2022-12-29T07:21:27;8.70;99.80
4433;DHT22;2229;48.708;9.706;2022-12-29T07:23:56;8.70;99.90
4433;DHT22;2229;48.708;9.706;2022-12-29T07:26:26;8.70;99.90
4433;DHT22;2229;48.708;9.706;2022-12-29T07:28:53;8.80;99.90
4433;DHT22;2229;48.708;9.706;2022-12-29T07:31:22;8.70;99.90
4433;DHT22;2229;48.708;9.706;2022-12-29T07:33:49;8.60;99.90
4433;DHT22;2229;48.708;9.706;2022-12-29T07:36:17;8.70;99.90
4433;DHT22;2229;48.708;9.706;2022-12-29T07:38:44;8.50;99.90
4433;DHT22;2229;48.708;9.706;2022-12-29T07:41:13;8.80;99.90
4433;DHT22;2229;48.708;9.706;2022-12-29T07:43:40;8.70;99.90
4433;DHT22;2229;48.708;9.706;2022-12-29T07:46:24;9.10;99.90
4433;DHT22;2229;48.708;9.706;2022-12-29T07:48:52;9.30;99.90
4433;DHT22;2229;48.708;9.706;2022-12-29T07:51:22;9.70;99.90
4433;DHT22;2229;48.708;9.706;2022-12-29T07:53:49;9.80;99.90
4433;DHT22;2229;48.708;9.706;2022-12-29T07:56:17;10.20;99.90
4433;DHT22;2229;48.708;9.706;2022-12-29T07:58:45;10.30;99.90
4433;DHT22;2229;48.708;9.706;2022-12-29T08:01:13;10.30;99.80
4433;DHT22;2229;48.708;9.706;2022-12-29T08:03:41;10.40;99.80
4433;DHT22;2229;48.708;9.706;2022-12-29T08:06:09;10.40;99.70
4433;DHT22;2229;48.708;9.706;2022-12-29T08:08:37;10.50;99.60
4433;DHT22;2229;48.708;9.706;2022-12-29T08:11:04;10.60;99.50
4433;DHT22;2229;48.708;9.706;2022-12-29T08:13:32;10.70;99.40
4433;DHT22;2229;48.708;9.706;2022-12-29T08:15:59;10.90;99.40
4433;DHT22;2229;48.708;9.706;2022-12-29T08:18:27;10.80;99.10
4433;DHT22;2229;48.708;9.706;2022-12-29T08:20:54;11.30;99.20
4433;DHT22;2229;48.708;9.706;2022-12-29T08:23:21;10.90;98.90
4433;DHT22;2229;48.708;9.706;2022-12-29T08:25:57;11.00;98.90
4433;DHT22;2229;48.708;9.706;2022-12-29T08:28:25;11.10;98.70
4433;DHT22;2229;48.708;9.706;2022-12-29T08:30:57;11.30;98.60
4433;DHT22;2229;48.708;9.706;2022-12-29T08:33:24;11.50;98.70
4433;DHT22;2229;48.708;9.706;2022-12-29T08:35:52;11.50;98.40
4433;DHT22;2229;48.708;9.706;2022-12-29T08:38:19;11.90;98.20
4433;DHT22;2229;48.708;9.706;2022-12-29T08:40:49;12.00;97.60
4433;DHT22;2229;48.708;9.706;2022-12-29T08:43:17;12.30;97.60
4433;DHT22;2229;48.708;9.706;2022-12-29T08:45:44;12.80;97.40
4433;DHT22;2229;48.708;9.706;2022-12-29T08:48:14;13.20;97.00
4433;DHT22;2229;48.708;9.706;2022-12-29T08:50:44;13.30;96.40
4433;DHT22;2229;48.708;9.706;2022-12-29T08:53:11;14.10;95.80
4433;DHT22;2229;48.708;9.706;2022-12-29T08:55:39;14.10;95.10
4433;DHT22;2229;48.708;9.706;2022-12-29T08:58:06;14.20;94.60
4433;DHT22;2229;48.708;9.706;2022-12-29T09:00:36;14.00;94.00
4433;DHT22;2229;48.708;9.706;2022-12-29T09:03:03;13.90;93.80
4433;DHT22;2229;48.708;9.706;2022-12-29T09:05:36;14.00;93.90
4433;DHT22;2229;48.708;9.706;2022-12-29T09:08:07;13.70;93.30
4433;DHT22;2229;48.708;9.706;2022-12-29T09:10:35;13.70;94.00
4433;DHT22;2229;48.708;9.706;2022-12-29T09:13:02;13.50;93.80
4433;DHT22;2229;48.708;9.706;2022-12-29T09:15:29;13.30;93.70
4433;DHT22;2229;48.708;9.706;2022-12-29T09:17:56;13.30;93.80
4433;DHT22;2229;48.708;9.706;2022-12-29T09:20:24;13.30;93.80
4433;DHT22;2229;48.708;9.706;2022-12-29T09:22:52;13.20;93.70
4433;DHT22;2229;48.708;9.706;2022-12-29T09:25:19;13.20;93.90
4433;DHT22;2229;48.708;9.706;2022-12-29T09:27:50;13.00;93.70
4433;DHT22;2229;48.708;9.706;2022-12-29T09:30:20;13.20;93.90
4433;DHT22;2229;48.708;9.706;2022-12-29T09:32:48;13.30;93.90
4433;DHT22;2229;48.708;9.706;2022-12-29T09:35:16;13.10;94.00
4433;DHT22;2229;48.708;9.706;2022-12-29T09:37:43;13.00;94.30
4433;DHT22;2229;48.708;9.706;2022-12-29T09:40:24;13.00;94.40
4433;DHT22;2229;48.708;9.706;2022-12-29T09:43:12;12.80;94.10
4433;DHT22;2229;48.708;9.706;2022-12-29T09:45:46;12.70;94.60
4433;DHT22;2229;48.708;9.706;2022-12-29T09:48:18;12.90;95.20
4433;DHT22;2229;48.708;9.706;2022-12-29T09:50:49;12.60;95.20
4433;DHT22;2229;48.708;9.706;2022-12-29T09:53:21;12.60;95.30
4433;DHT22;2229;48.708;9.706;2022-12-29T09:55:54;12.60;95.50
4433;DHT22;2229;48.708;9.706;2022-12-29T09:58:24;12.50;95.40
4433;DHT22;2229;48.708;9.706;2022-12-29T10:00:56;12.60;95.70
4433;DHT22;2229;48.708;9.706;2022-12-29T10:03:36;12.40;96.30
4433;DHT22;2229;48.708;9.706;2022-12-29T10:06:11;12.30;96.00
4433;DHT22;2229;48.708;9.706;2022-12-29T10:08:43;12.50;96.30
4433;DHT22;2229;48.708;9.706;2022-12-29T10:11:25;12.30;96.50
4433;DHT22;2229;48.708;9.706;2022-12-29T10:14:08;12.40;96.70
4433;DHT22;2229;48.708;9.706;2022-12-29T10:16:47;12.30;96.40
4433;DHT22;2229;48.708;9.706;2022-12-29T10:19:37;12.30;96.50
4433;DHT22;2229;48.708;9.706;2022-12-29T10:22:23;12.50;96.40
4433;DHT22;2229;48.708;9.706;2022-12-29T10:25:00;12.50;96.40
4433;DHT22;2229;48.708;9.706;2022-12-29T10:27:33;12.50;97.20
4433;DHT22;2229;48.708;9.706;2022-12-29T10:30:02;12.40;97.20
4433;DHT22;2229;48.708;9.706;2022-12-29T10:32:34;12.50;97.00
4433;DHT22;2229;48.708;9.706;2022-12-29T10:35:06;12.70;97.00
4433;DHT22;2229;48.708;9.706;2022-12-29T10:37:42;12.50;97.10
4433;DHT22;2229;48.708;9.706;2022-12-29T10:40:22;12.60;97.10
4433;DHT22;2229;48.708;9.706;2022-12-29T10:42:54;12.30;97.00
4433;DHT22;2229;48.708;9.706;2022-12-29T10:45:23;12.70;97.10
4433;DHT22;2229;48.708;9.706;2022-12-29T10:47:56;12.60;97.20
4433;DHT22;2229;48.708;9.706;2022-12-29T10:50:25;12.50;97.30
4433;DHT22;2229;48.708;9.706;2022-12-29T10:52:56;12.50;97.40
4433;DHT22;2229;48.708;9.706;2022-12-29T10:55:27;12.40;97.70
4433;DHT22;2229;48.708;9.706;2022-12-29T10:58:00;12.30;97.90
4433;DHT22;2229;48.708;9.706;2022-12-29T11:00:31;12.30;97.90
4433;DHT22;2229;48.708;9.706;2022-12-29T11:03:34;12.30;98.10
4433;DHT22;2229;48.708;9.706;2022-12-29T11:06:08;12.30;97.80
4433;DHT22;2229;48.708;9.706;2022-12-29T11:08:38;12.30;98.50
4433;DHT22;2229;48.708;9.706;2022-12-29T11:11:08;12.40;98.40
4433;DHT22;2229;48.708;9.706;2022-12-29T11:13:50;12.20;98.60
4433;DHT22;2229;48.708;9.706;2022-12-29T11:16:27;12.30;98.80
4433;DHT22;2229;48.708;9.706;2022-12-29T11:18:56;12.20;98.90
4433;DHT22;2229;48.708;9.706;2022-12-29T11:21:28;12.30;98.90
4433;DHT22;2229;48.708;9.706;2022-12-29T11:23:59;12.40;98.90
4433;DHT22;2229;48.708;9.706;2022-12-29T11:26:27;12.30;99.00
4433;DHT22;2229;48.708;9.706;2022-12-29T11:29:23;12.30;99.20
4433;DHT22;2229;48.708;9.706;2022-12-29T11:31:53;12.30;99.00
4433;DHT22;2229;48.708;9.706;2022-12-29T11:34:23;12.40;99.90
4433;DHT22;2229;48.708;9.706;2022-12-29T11:36:53;11.60;99.90
4433;DHT22;2229;48.708;9.706;2022-12-29T11:39:30;12.40;99.90
4433;DHT22;2229;48.708;9.706;2022-12-29T11:41:59;12.30;99.90
4433;DHT22;2229;48.708;9.706;2022-12-29T11:44:34;12.50;99.90
4433;DHT22;2229;48.708;9.706;2022-12-29T11:47:03;12.50;99.90
4433;DHT22;2229;48.708;9.706;2022-12-29T11:49:30;12.50;99.90
4433;DHT22;2229;48.708;9.706;2022-12-29T11:51:58;12.60;99.90
4433;DHT22;2229;48.708;9.706;2022-12-29T11:54:28;12.60;99.90
4433;DHT22;2229;48.708;9.706;2022-12-29T11:56:57;12.50;99.90
4433;DHT22;2229;48.708;9.706;2022-12-29T11:59:40;12.80;99.90
4433;DHT22;2229;48.708;9.706;2022-12-29T12:02:35;12.60;99.90
4433;DHT22;2229;48.708;9.706;2022-12-29T12:05:13;12.50;99.90
4433;DHT22;2229;48.708;9.706;2022-12-29T12:07:44;12.50;99.90
4433;DHT22;2229;48.708;9.706;2022-12-29T12:10:23;12.40;99.90
4433;DHT22;2229;48.708;9.706;2022-12-29T12:12:58;12.50;99.90
4433;DHT22;2229;48.708;9.706;2022-12-29T12:15:34;12.40;99.90
4433;DHT22;2229;48.708;9.706;2022-12-29T12:18:09;12.50;99.90
4433;DHT22;2229;48.708;9.706;2022-12-29T12:20:44;12.60;99.90
4433;DHT22;2229;48.708;9.706;2022-12-29T12:23:25;12.40;99.90
4433;DHT22;2229;48.708;9.706;2022-12-29T12:26:01;12.40;99.90
4433;DHT22;2229;48.708;9.706;2022-12-29T12:28:37;12.50;99.90
4433;DHT22;2229;48.708;9.706;2022-12-29T12:31:15;12.50;99.90
4433;DHT22;2229;48.708;9.706;2022-12-29T12:33:44;12.10;99.90
4433;DHT22;2229;48.708;9.706;2022-12-29T12:36:23;12.20;99.90
4433;DHT22;2229;48.708;9.706;2022-12-29T12:38:55;12.30;99.90
4433;DHT22;2229;48.708;9.706;2022-12-29T12:41:34;12.20;99.90
4433;DHT22;2229;48.708;9.706;2022-12-29T12:44:09;12.30;99.90
4433;DHT22;2229;48.708;9.706;2022-12-29T12:47:04;12.30;99.90
4433;DHT22;2229;48.708;9.706;2022-12-29T12:50:08;12.30;99.90
4433;DHT22;2229;48.708;9.706;2022-12-29T12:52:50;12.20;99.90
4433;DHT22;2229;48.708;9.706;2022-12-29T12:55:42;12.40;99.90
4433;DHT22;2229;48.708;9.706;2022-12-29T12:58:19;12.20;99.90
4433;DHT22;2229;48.708;9.706;2022-12-29T13:01:04;12.20;99.90
4433;DHT22;2229;48.708;9.706;2022-12-29T13:03:48;12.20;99.90
4433;DHT22;2229;48.708;9.706;2022-12-29T13:06:28;12.30;99.90
4433;DHT22;2229;48.708;9.706;2022-12-29T13:09:25;12.20;99.90
4433;DHT22;2229;48.708;9.706;2022-12-29T13:12:08;12.20;99.90
4433;DHT22;2229;48.708;9.706;2022-12-29T13:14:50;12.30;99.90
4433;DHT22;2229;48.708;9.706;2022-12-29T13:17:30;12.30;99.90
4433;DHT22;2229;48.708;9.706;2022-12-29T13:20:07;12.50;99.90
4433;DHT22;2229;48.708;9.706;2022-12-29T13:22:41;12.30;99.90
4433;DHT22;2229;48.708;9.706;2022-12-29T13:25:21;12.30;99.90
4433;DHT22;2229;48.708;9.706;2022-12-29T13:27:55;12.20;99.90
4433;DHT22;2229;48.708;9.706;2022-12-29T13:30:31;12.20;99.90
4433;DHT22;2229;48.708;9.706;2022-12-29T13:33:07;12.20;99.90
4433;DHT22;2229;48.708;9.706;2022-12-29T13:35:52;12.00;99.90
4433;DHT22;2229;48.708;9.706;2022-12-29T13:38:23;12.10;99.90
4433;DHT22;2229;48.708;9.706;2022-12-29T13:40:55;12.10;99.90
4433;DHT22;2229;48.708;9.706;2022-12-29T13:43:23;12.20;99.90
4433;DHT22;2229;48.708;9.706;2022-12-29T13:45:58;11.70;99.90
4433;DHT22;2229;48.708;9.706;2022-12-29T13:48:35;12.10;99.90
4433;DHT22;2229;48.708;9.706;2022-12-29T13:51:05;12.30;99.90
4433;DHT22;2229;48.708;9.706;2022-12-29T13:53:41;12.00;99.90
4433;DHT22;2229;48.708;9.706;2022-12-29T13:56:15;12.30;99.90
4433;DHT22;2229;48.708;9.706;2022-12-29T13:58:50;12.30;99.90
4433;DHT22;2229;48.708;9.706;2022-12-29T14:01:24;11.90;99.90
4433;DHT22;2229;48.708;9.706;2022-12-29T14:03:55;12.20;99.90
4433;DHT22;2229;48.708;9.706;2022-12-29T14:06:26;12.10;99.90
4433;DHT22;2229;48.708;9.706;2022-12-29T14:08:56;12.00;99.90
4433;DHT22;2229;48.708;9.706;2022-12-29T14:11:30;12.10;99.90
4433;DHT22;2229;48.708;9.706;2022-12-29T14:13:58;12.10;99.90
4433;DHT22;2229;48.708;9.706;2022-12-29T14:16:31;12.10;99.90
4433;DHT22;2229;48.708;9.706;2022-12-29T14:19:15;12.10;99.90
4433;DHT22;2229;48.708;9.706;2022-12-29T14:21:52;12.10;99.90
4433;DHT22;2229;48.708;9.706;2022-12-29T14:27:50;12.20;99.90
4433;DHT22;2229;48.708;9.706;2022-12-29T14:30:45;12.20;99.90
4433;DHT22;2229;48.708;9.706;2022-12-29T14:33:17;12.20;99.90
4433;DHT22;2229;48.708;9.706;2022-12-29T14:35:47;12.30;99.90
4433;DHT22;2229;48.708;9.706;2022-12-29T14:38:22;12.30;99.90
4433;DHT22;2229;48.708;9.706;2022-12-29T14:40:50;12.30;99.90
4433;DHT22;2229;48.708;9.706;2022-12-29T14:43:22;12.20;99.90
4433;DHT22;2229;48.708;9.706;2022-12-29T14:45:57;12.20;99.90
4433;DHT22;2229;48.708;9.706;2022-12-29T14:48:43;12.20;99.90
4433;DHT22;2229;48.708;9.706;2022-12-29T14:51:19;12.10;99.90
4433;DHT22;2229;48.708;9.706;2022-12-29T14:53:53;12.10;99.90
4433;DHT22;2229;48.708;9.706;2022-12-29T14:56:25;12.30;99.90
4433;DHT22;2229;48.708;9.706;2022-12-29T14:58:55;12.20;99.90
4433;DHT22;2229;48.708;9.706;2022-12-29T15:01:29;12.40;99.90
4433;DHT22;2229;48.708;9.706;2022-12-29T15:04:12;12.30;99.90
4433;DHT22;2229;48.708;9.706;2022-12-29T15:06:41;12.20;99.90
4433;DHT22;2229;48.708;9.706;2022-12-29T15:09:20;12.20;99.90
4433;DHT22;2229;48.708;9.706;2022-12-29T15:11:51;12.20;99.90
4433;DHT22;2229;48.708;9.706;2022-12-29T15:14:35;11.90;99.90
4433;DHT22;2229;48.708;9.706;2022-12-29T15:17:10;11.80;99.90
4433;DHT22;2229;48.708;9.706;2022-12-29T15:19:38;11.90;99.90
4433;DHT22;2229;48.708;9.706;2022-12-29T15:22:09;12.10;99.90
4433;DHT22;2229;48.708;9.706;2022-12-29T15:24:43;11.80;99.90
4433;DHT22;2229;48.708;9.706;2022-12-29T15:27:13;12.00;99.90
4433;DHT22;2229;48.708;9.706;2022-12-29T15:29:42;12.00;99.90
4433;DHT22;2229;48.708;9.706;2022-12-29T15:32:21;11.90;99.90
4433;DHT22;2229;48.708;9.706;2022-12-29T15:34:51;11.80;99.90
4433;DHT22;2229;48.708;9.706;2022-12-29T15:37:21;12.30;99.90
4433;DHT22;2229;48.708;9.706;2022-12-29T15:39:55;11.60;99.90
4433;DHT22;2229;48.708;9.706;2022-12-29T15:42:33;11.70;99.90
4433;DHT22;2229;48.708;9.706;2022-12-29T15:45:10;11.70;99.90
4433;DHT22;2229;48.708;9.706;2022-12-29T15:47:40;11.60;99.90
4433;DHT22;2229;48.708;9.706;2022-12-29T15:50:14;11.60;99.90
4433;DHT22;2229;48.708;9.706;2022-12-29T15:52:42;11.50;99.90
4433;DHT22;2229;48.708;9.706;2022-12-29T15:55:19;11.40;99.90
4433;DHT22;2229;48.708;9.706;2022-12-29T15:57:47;11.30;99.90
4433;DHT22;2229;48.708;9.706;2022-12-29T16:00:25;11.20;99.90
4433;DHT22;2229;48.708;9.706;2022-12-29T16:02:54;11.10;99.90
4433;DHT22;2229;48.708;9.706;2022-12-29T16:05:22;11.10;99.90
4433;DHT22;2229;48.708;9.706;2022-12-29T16:07:54;11.30;99.90
4433;DHT22;2229;48.708;9.706;2022-12-29T16:10:36;11.10;99.90
4433;DHT22;2229;48.708;9.706;2022-12-29T16:13:06;11.10;99.90
4433;DHT22;2229;48.708;9.706;2022-12-29T16:15:40;11.10;99.90
4433;DHT22;2229;48.708;9.706;2022-12-29T16:18:23;11.10;99.90
4433;DHT22;2229;48.708;9.706;2022-12-29T16:20:52;11.10;99.90
4433;DHT22;2229;48.708;9.706;2022-12-29T16:23:22;11.20;99.90
4433;DHT22;2229;48.708;9.706;2022-12-29T16:25:52;11.20;99.90
4433;DHT22;2229;48.708;9.706;2022-12-29T16:28:22;11.30;99.90
4433;DHT22;2229;48.708;9.706;2022-12-29T16:30:58;11.30;99.90
4433;DHT22;2229;48.708;9.706;2022-12-29T16:33:45;11.30;99.90
4433;DHT22;2229;48.708;9.706;2022-12-29T16:36:30;11.40;99.90
4433;DHT22;2229;48.708;9.706;2022-12-29T16:39:31;11.30;99.90
4433;DHT22;2229;48.708;9.706;2022-12-29T16:42:34;11.30;99.90
4433;DHT22;2229;48.708;9.706;2022-12-29T16:48:16;11.30;99.90
4433;DHT22;2229;48.708;9.706;2022-12-29T16:50:45;11.30;99.90
4433;DHT22;2229;48.708;9.706;2022-12-29T16:53:20;11.80;99.90
4433;DHT22;2229;48.708;9.706;2022-12-29T16:55:49;11.50;99.90
4433;DHT22;2229;48.708;9.706;2022-12-29T16:58:21;11.40;99.90